createdAt,value
2018-08-31T00:01:35.402Z,5.97
2018-08-31T00:04:42.953Z,5.83
2018-08-31T00:07:22.349Z,6.07
2018-08-31T00:54:22.685Z,6.77
2018-08-31T00:56:51.875Z,6.87
2018-08-31T00:59:21.014Z,6.93
2018-08-31T01:01:50.421Z,8.87
2018-08-31T01:04:19.608Z,9.10
2018-08-31T01:06:48.984Z,6.60
2018-08-31T01:09:18.205Z,6.93
2018-08-31T01:11:47.507Z,6.80
2018-08-31T01:14:16.861Z,7.10
2018-08-31T01:16:46.447Z,7.20
2018-08-31T01:19:15.826Z,6.77
2018-08-31T01:21:45.331Z,6.93
2018-08-31T01:24:15.139Z,7.10
2018-08-31T01:26:44.590Z,6.90
2018-08-31T01:29:13.903Z,7.00
2018-08-31T01:31:43.775Z,7.77
2018-08-31T01:34:13.271Z,6.67
2018-08-31T01:36:42.610Z,7.30
2018-08-31T01:39:12.422Z,6.80
2018-08-31T01:41:41.781Z,7.10
2018-08-31T01:44:11.078Z,6.93
2018-08-31T01:46:40.367Z,7.00
2018-08-31T01:49:09.545Z,7.23
2018-08-31T01:51:38.773Z,7.20
2018-08-31T01:54:08.158Z,6.67
2018-08-31T01:56:37.627Z,7.23
2018-08-31T01:59:06.910Z,7.17
2018-08-31T02:01:36.439Z,6.83
2018-08-31T02:04:05.845Z,6.30
2018-08-31T02:06:35.243Z,6.50
2018-08-31T02:09:09.651Z,6.20
2018-08-31T02:11:39.376Z,6.17
2018-08-31T02:14:09.116Z,5.93
2018-08-31T02:16:38.610Z,6.37
2018-08-31T02:19:08.060Z,6.30
2018-08-31T02:21:37.511Z,6.17
2018-08-31T02:24:06.720Z,6.50
2018-08-31T02:26:36.475Z,6.43
2018-08-31T02:29:05.682Z,6.07
2018-08-31T02:31:34.991Z,6.13
2018-08-31T02:34:04.761Z,5.60
2018-08-31T02:36:33.852Z,6.00
2018-08-31T02:39:03.459Z,5.83
2018-08-31T02:41:32.961Z,5.40
2018-08-31T02:44:02.264Z,5.60
2018-08-31T02:46:31.313Z,5.23
2018-08-31T02:49:00.784Z,5.37
2018-08-31T02:51:29.905Z,5.50
2018-08-31T02:53:59.089Z,4.93
2018-08-31T02:56:28.706Z,5.10
2018-08-31T02:58:58.420Z,5.23
2018-08-31T03:01:27.642Z,4.87
2018-08-31T03:03:57.277Z,4.83
2018-08-31T03:06:26.492Z,4.90
2018-08-31T03:08:55.721Z,4.77
2018-08-31T03:11:25.294Z,4.67
2018-08-31T03:13:54.611Z,4.70
2018-08-31T03:16:23.694Z,4.30
2018-08-31T03:18:53.022Z,4.20
2018-08-31T03:21:25.806Z,3.97
2018-08-31T03:23:55.282Z,3.27
2018-08-31T03:26:24.532Z,3.10
2018-08-31T03:28:54.026Z,3.13
2018-08-31T03:31:23.589Z,3.10
2018-08-31T03:33:52.890Z,2.70
2018-08-31T03:36:22.080Z,3.07
2018-08-31T03:38:51.294Z,3.00
2018-08-31T03:41:20.826Z,3.03
2018-08-31T03:43:50.180Z,2.40
2018-08-31T03:46:19.805Z,2.70
2018-08-31T03:48:49.312Z,2.40
2018-08-31T03:51:18.802Z,2.67
2018-08-31T03:53:48.253Z,2.67
2018-08-31T03:56:17.491Z,3.00
2018-08-31T03:58:46.790Z,2.50
2018-08-31T04:01:16.298Z,2.50
2018-08-31T04:03:45.594Z,2.80
2018-08-31T04:06:14.901Z,2.70
2018-08-31T04:08:44.224Z,2.80
2018-08-31T04:11:13.767Z,2.53
2018-08-31T04:13:42.907Z,2.53
2018-08-31T04:16:12.737Z,2.67
2018-08-31T04:18:42.389Z,2.50
2018-08-31T04:21:11.786Z,2.70
2018-08-31T04:23:41.218Z,2.53
2018-08-31T04:26:10.066Z,2.30
2018-08-31T04:28:38.910Z,2.83
2018-08-31T04:31:08.534Z,2.90
2018-08-31T04:33:37.707Z,3.03
2018-08-31T04:36:06.882Z,3.20
2018-08-31T04:38:36.423Z,2.90
2018-08-31T04:41:06.202Z,3.03
2018-08-31T04:43:35.434Z,2.30
2018-08-31T04:46:04.825Z,3.50
2018-08-31T04:48:34.238Z,2.80
2018-08-31T04:51:03.430Z,2.43
2018-08-31T04:53:32.896Z,2.40
2018-08-31T04:56:02.138Z,2.40
2018-08-31T04:58:31.482Z,2.43
2018-08-31T05:01:00.948Z,2.10
2018-08-31T05:03:29.940Z,2.00
2018-08-31T05:05:59.189Z,2.10
2018-08-31T05:08:28.493Z,2.13
2018-08-31T05:10:57.796Z,2.37
2018-08-31T05:13:26.922Z,2.23
2018-08-31T05:15:56.363Z,2.00
2018-08-31T05:18:25.407Z,2.40
2018-08-31T05:20:54.348Z,2.03
2018-08-31T05:23:23.840Z,1.97
2018-08-31T05:25:53.087Z,1.83
2018-08-31T05:28:22.075Z,2.00
2018-08-31T05:30:52.529Z,1.40
2018-08-31T05:33:21.568Z,1.83
2018-08-31T05:35:50.511Z,1.87
2018-08-31T05:38:19.429Z,1.70
2018-08-31T05:40:48.497Z,1.90
2018-08-31T05:43:17.573Z,1.70
2018-08-31T05:45:46.615Z,1.80
2018-08-31T05:48:15.814Z,2.20
2018-08-31T05:50:45.045Z,2.37
2018-08-31T05:53:14.340Z,2.27
2018-08-31T05:55:43.627Z,2.20
2018-08-31T05:58:12.731Z,2.03
2018-08-31T06:00:41.729Z,2.37
2018-08-31T06:03:10.827Z,2.23
2018-08-31T06:05:39.756Z,2.10
2018-08-31T06:08:08.664Z,2.17
2018-08-31T06:10:37.853Z,2.20
2018-08-31T06:13:06.859Z,2.17
2018-08-31T06:15:35.857Z,1.73
2018-08-31T06:18:05.437Z,1.67
2018-08-31T06:20:34.186Z,2.20
2018-08-31T06:23:03.867Z,2.10
2018-08-31T06:25:33.063Z,1.70
2018-08-31T06:28:01.917Z,1.80
2018-08-31T06:30:30.895Z,2.00
2018-08-31T06:33:00.060Z,1.70
2018-08-31T06:35:29.269Z,1.53
2018-08-31T06:37:58.214Z,1.63
2018-08-31T06:40:27.626Z,1.77
2018-08-31T06:42:56.413Z,1.83
2018-08-31T06:45:25.463Z,1.60
2018-08-31T06:47:54.745Z,1.50
2018-08-31T06:50:23.652Z,1.30
2018-08-31T06:52:52.594Z,1.50
2018-08-31T06:55:21.716Z,2.23
2018-08-31T06:57:50.831Z,2.10
2018-08-31T07:00:19.683Z,1.50
2018-08-31T07:02:48.704Z,1.70
2018-08-31T07:05:17.632Z,1.60
2018-08-31T07:07:46.598Z,1.53
2018-08-31T07:10:15.802Z,1.50
2018-08-31T07:12:44.792Z,1.10
2018-08-31T07:15:13.766Z,1.23
2018-08-31T07:17:42.863Z,1.50
2018-08-31T07:20:11.864Z,1.20
2018-08-31T07:22:40.722Z,1.40
2018-08-31T07:25:10.010Z,1.50
2018-08-31T07:27:39.078Z,1.80
2018-08-31T07:30:08.580Z,1.20
2018-08-31T07:32:37.808Z,1.20
2018-08-31T07:35:06.976Z,1.50
2018-08-31T07:37:36.139Z,1.23
2018-08-31T07:40:05.693Z,1.40
2018-08-31T07:42:34.590Z,1.03
2018-08-31T07:45:04.436Z,0.90
2018-08-31T07:47:33.350Z,0.90
2018-08-31T07:50:02.707Z,0.90
2018-08-31T07:52:31.606Z,0.90
2018-08-31T07:55:00.800Z,1.20
2018-08-31T07:57:29.894Z,1.00
2018-08-31T07:59:58.750Z,1.00
2018-08-31T08:02:28.741Z,1.23
2018-08-31T08:04:57.574Z,1.00
2018-08-31T08:07:26.748Z,1.50
2018-08-31T08:09:55.731Z,0.90
2018-08-31T08:12:24.628Z,0.80
2018-08-31T08:14:53.559Z,0.70
2018-08-31T08:17:22.906Z,0.80
2018-08-31T08:19:52.123Z,1.00
2018-08-31T08:22:21.310Z,0.97
2018-08-31T08:24:50.355Z,0.93
2018-08-31T08:27:19.308Z,0.90
2018-08-31T08:29:48.194Z,0.67
2018-08-31T08:32:17.213Z,0.90
2018-08-31T08:34:46.156Z,1.20
2018-08-31T08:37:15.184Z,1.10
2018-08-31T08:39:44.654Z,1.20
2018-08-31T08:42:13.798Z,1.77
2018-08-31T08:44:43.185Z,1.40
2018-08-31T08:47:12.301Z,1.20
2018-08-31T08:49:41.246Z,1.13
2018-08-31T08:52:10.166Z,1.10
2018-08-31T08:54:39.293Z,1.00
2018-08-31T08:57:08.624Z,2.20
2018-08-31T08:59:37.854Z,1.80
2018-08-31T09:02:07.258Z,1.20
2018-08-31T09:04:36.149Z,1.20
2018-08-31T09:07:05.375Z,1.40
2018-08-31T09:09:34.902Z,0.93
2018-08-31T09:12:03.828Z,1.20
2018-08-31T09:14:32.811Z,1.67
2018-08-31T09:17:01.853Z,1.10
2018-08-31T09:19:31.158Z,1.40
2018-08-31T09:22:00.404Z,1.70
2018-08-31T09:24:29.724Z,1.80
2018-08-31T09:26:58.641Z,1.63
2018-08-31T09:29:27.596Z,1.60
2018-08-31T09:31:56.760Z,1.50
2018-08-31T09:34:25.735Z,1.37
2018-08-31T09:36:54.577Z,3.30
2018-08-31T09:39:24.493Z,1.90
2018-08-31T09:41:54.096Z,1.40
2018-08-31T09:44:23.029Z,1.60
2018-08-31T09:46:52.073Z,1.60
2018-08-31T09:49:21.226Z,1.37
2018-08-31T09:51:50.077Z,1.60
2018-08-31T09:54:19.159Z,1.90
2018-08-31T09:56:47.959Z,2.80
2018-08-31T09:59:17.024Z,2.30
2018-08-31T10:01:46.472Z,2.40
2018-08-31T10:04:15.390Z,1.70
2018-08-31T10:06:44.494Z,1.90
2018-08-31T10:09:13.678Z,1.63
2018-08-31T10:11:42.917Z,2.70
2018-08-31T10:14:12.221Z,2.70
2018-08-31T10:16:41.800Z,2.53
2018-08-31T10:19:10.689Z,2.20
2018-08-31T10:21:39.698Z,1.67
2018-08-31T10:24:08.720Z,2.23
2018-08-31T10:26:37.572Z,2.50
2018-08-31T10:29:06.627Z,2.37
2018-08-31T10:31:35.790Z,2.50
2018-08-31T10:34:04.767Z,2.83
2018-08-31T10:36:33.821Z,2.40
2018-08-31T10:39:03.522Z,2.87
2018-08-31T10:41:32.399Z,4.10
2018-08-31T10:44:01.549Z,2.40
2018-08-31T10:46:30.750Z,2.23
2018-08-31T10:48:59.968Z,2.60
2018-08-31T10:51:28.893Z,3.83
2018-08-31T10:53:57.992Z,2.90
2018-08-31T10:56:27.323Z,4.40
2018-08-31T10:58:56.434Z,2.60
2018-08-31T11:01:25.723Z,1.97
2018-08-31T11:03:54.703Z,2.30
2018-08-31T11:06:23.916Z,2.03
2018-08-31T11:08:53.217Z,2.50
2018-08-31T11:11:22.147Z,2.00
2018-08-31T11:13:51.003Z,2.20
2018-08-31T11:16:20.417Z,1.97
2018-08-31T11:18:49.597Z,2.03
2018-08-31T11:21:18.461Z,1.60
2018-08-31T11:23:48.090Z,2.10
2018-08-31T11:26:17.088Z,2.40
2018-08-31T11:28:45.920Z,1.50
2018-08-31T11:31:15.033Z,1.90
2018-08-31T11:33:44.043Z,1.60
2018-08-31T11:36:12.894Z,1.70
2018-08-31T11:38:42.148Z,1.63
2018-08-31T11:41:11.569Z,1.90
2018-08-31T11:43:40.392Z,1.50
2018-08-31T11:46:09.661Z,1.73
2018-08-31T11:48:38.630Z,1.50
2018-08-31T11:51:07.653Z,1.50
2018-08-31T11:53:36.821Z,1.70
2018-08-31T11:56:06.114Z,1.70
2018-08-31T11:58:35.247Z,1.87
2018-08-31T12:01:04.528Z,1.90
2018-08-31T12:03:33.530Z,2.10
2018-08-31T12:06:02.360Z,2.10
2018-08-31T12:08:31.559Z,1.43
2018-08-31T12:11:00.448Z,1.50
2018-08-31T12:13:29.372Z,1.60
2018-08-31T12:15:58.569Z,1.57
2018-08-31T12:18:27.492Z,2.10
2018-08-31T12:20:56.456Z,1.90
2018-08-31T12:23:25.529Z,1.60
2018-08-31T12:25:54.448Z,1.73
2018-08-31T12:28:24.163Z,1.77
2018-08-31T12:30:53.199Z,1.80
2018-08-31T12:33:22.352Z,1.40
2018-08-31T12:35:51.236Z,1.40
2018-08-31T12:38:20.830Z,1.30
2018-08-31T12:40:49.661Z,1.50
2018-08-31T12:43:18.757Z,1.10
2018-08-31T12:45:48.066Z,1.20
2018-08-31T12:48:17.421Z,1.30
2018-08-31T12:50:46.503Z,1.20
2018-08-31T12:53:15.552Z,1.63
2018-08-31T12:55:44.882Z,2.10
2018-08-31T12:58:14.150Z,3.00
2018-08-31T13:00:43.660Z,2.10
2018-08-31T13:03:12.686Z,1.33
2018-08-31T13:05:41.649Z,1.13
2018-08-31T13:08:10.692Z,1.40
2018-08-31T13:10:39.667Z,1.40
2018-08-31T13:13:08.592Z,1.27
2018-08-31T13:15:37.625Z,1.10
2018-08-31T13:18:06.593Z,1.23
2018-08-31T13:20:35.558Z,1.57
2018-08-31T13:23:05.095Z,1.53
2018-08-31T13:25:34.048Z,1.50
2018-08-31T13:28:03.036Z,1.37
2018-08-31T13:30:32.241Z,1.23
2018-08-31T13:33:01.194Z,0.80
2018-08-31T13:35:30.242Z,1.00
2018-08-31T13:37:59.491Z,1.10
2018-08-31T13:40:28.602Z,1.00
2018-08-31T13:42:57.569Z,1.20
2018-08-31T13:45:26.755Z,0.90
2018-08-31T13:47:55.763Z,1.10
2018-08-31T13:50:25.026Z,1.30
2018-08-31T13:52:54.336Z,1.03
2018-08-31T13:55:23.729Z,1.00
2018-08-31T13:57:52.678Z,0.97
2018-08-31T14:00:22.650Z,1.00
2018-08-31T14:02:51.841Z,0.97
2018-08-31T14:05:21.047Z,1.40
2018-08-31T14:07:50.069Z,1.40
2018-08-31T14:10:18.926Z,1.53
2018-08-31T14:12:47.855Z,1.53
2018-08-31T14:15:16.940Z,1.20
2018-08-31T14:17:46.038Z,1.50
2018-08-31T14:20:15.373Z,1.10
2018-08-31T14:22:44.614Z,2.00
2018-08-31T14:25:13.652Z,0.80
2018-08-31T14:27:42.933Z,1.10
2018-08-31T14:30:12.155Z,0.80
2018-08-31T14:32:41.178Z,0.90
2018-08-31T14:35:10.180Z,0.87
2018-08-31T14:37:39.443Z,1.53
2018-08-31T14:40:09.374Z,1.03
2018-08-31T14:42:38.459Z,0.90
2018-08-31T14:45:08.088Z,1.10
2018-08-31T14:47:37.193Z,1.23
2018-08-31T14:50:06.949Z,1.33
2018-08-31T14:52:36.396Z,0.90
2018-08-31T14:55:05.582Z,1.00
2018-08-31T14:57:35.150Z,1.10
2018-08-31T15:00:04.534Z,1.00
2018-08-31T15:02:33.581Z,0.90
2018-08-31T15:05:03.062Z,0.80
2018-08-31T15:07:32.380Z,0.77
2018-08-31T15:10:01.355Z,1.10
2018-08-31T15:12:30.252Z,0.90
2018-08-31T15:14:59.433Z,1.03
2018-08-31T15:17:28.390Z,0.90
2018-08-31T15:19:57.304Z,0.97
2018-08-31T15:22:26.600Z,1.33
2018-08-31T15:24:55.706Z,1.40
2018-08-31T15:27:24.747Z,0.97
2018-08-31T15:29:53.882Z,1.10
2018-08-31T15:32:22.789Z,0.80
2018-08-31T15:34:51.819Z,1.13
2018-08-31T15:37:20.805Z,1.00
2018-08-31T15:39:49.860Z,1.10
2018-08-31T15:42:18.906Z,1.20
2018-08-31T15:44:47.989Z,1.30
2018-08-31T15:47:16.997Z,1.30
2018-08-31T15:49:46.082Z,1.97
2018-08-31T15:52:15.711Z,1.70
2018-08-31T15:54:45.153Z,1.00
2018-08-31T15:57:14.196Z,1.00
2018-08-31T15:59:43.222Z,1.03
2018-08-31T16:02:12.132Z,1.73
2018-08-31T16:04:41.009Z,1.20
2018-08-31T16:07:10.272Z,1.33
2018-08-31T16:09:39.333Z,0.97
2018-08-31T16:12:08.646Z,0.90
2018-08-31T16:14:37.875Z,1.57
2018-08-31T16:17:06.914Z,1.40
2018-08-31T16:19:36.245Z,1.10
2018-08-31T16:22:05.726Z,1.53
2018-08-31T16:24:34.856Z,1.27
2018-08-31T16:27:03.912Z,2.40
2018-08-31T16:29:33.013Z,2.40
2018-08-31T16:32:02.043Z,1.90
2018-08-31T16:34:30.972Z,2.07
2018-08-31T16:37:00.948Z,1.80
2018-08-31T16:39:29.987Z,2.00
2018-08-31T16:41:59.034Z,2.17
2018-08-31T16:44:28.589Z,2.43
2018-08-31T16:46:57.631Z,2.67
2018-08-31T16:49:26.742Z,1.80
2018-08-31T16:51:56.166Z,3.50
2018-08-31T16:54:25.210Z,2.70
2018-08-31T16:56:54.243Z,2.57
2018-08-31T16:59:23.411Z,2.27
2018-08-31T17:01:52.637Z,1.90
2018-08-31T17:04:21.976Z,1.50
2018-08-31T17:06:51.183Z,2.77
2018-08-31T17:09:20.285Z,2.40
2018-08-31T17:11:49.207Z,2.43
2018-08-31T17:14:18.437Z,2.00
2018-08-31T17:16:47.473Z,1.80
2018-08-31T17:19:16.667Z,1.70
2018-08-31T17:21:45.997Z,1.80
2018-08-31T17:24:15.132Z,1.73
2018-08-31T17:26:49.374Z,2.07
2018-08-31T17:29:23.667Z,1.90
2018-08-31T17:31:57.808Z,1.97
2018-08-31T17:34:31.920Z,2.60
2018-08-31T17:37:06.190Z,3.83
2018-08-31T17:39:35.600Z,2.00
2018-08-31T17:42:04.633Z,1.90
2018-08-31T17:44:33.885Z,2.87
2018-08-31T17:47:03.128Z,3.60
2018-08-31T17:49:32.248Z,2.63
2018-08-31T17:52:01.261Z,2.17
2018-08-31T17:54:30.283Z,2.03
2018-08-31T17:56:59.485Z,1.90
2018-08-31T17:59:28.642Z,1.93
2018-08-31T18:01:58.062Z,3.53
2018-08-31T18:04:27.332Z,3.60
2018-08-31T18:06:56.759Z,2.03
2018-08-31T18:09:26.437Z,3.60
2018-08-31T18:11:55.354Z,2.60
2018-08-31T18:14:24.463Z,5.10
2018-08-31T18:16:53.775Z,4.40
2018-08-31T18:19:23.461Z,4.47
2018-08-31T18:21:52.595Z,4.60
2018-08-31T18:24:22.071Z,3.50
2018-08-31T18:26:51.012Z,3.37
2018-08-31T18:29:21.108Z,3.90
2018-08-31T18:31:50.454Z,3.50
2018-08-31T18:34:19.453Z,3.90
2018-08-31T18:36:48.347Z,2.37
2018-08-31T18:39:17.778Z,2.20
2018-08-31T18:41:47.198Z,2.80
2018-08-31T18:44:16.389Z,2.73
2018-08-31T18:46:46.103Z,2.40
2018-08-31T18:49:15.343Z,2.07
2018-08-31T18:51:44.813Z,2.03
2018-08-31T18:54:14.394Z,1.73
2018-08-31T18:56:43.665Z,2.53
2018-08-31T18:59:12.802Z,3.63
2018-08-31T19:01:42.166Z,3.60
2018-08-31T19:04:11.624Z,4.00
2018-08-31T19:06:40.761Z,3.60
2018-08-31T19:09:10.114Z,3.10
2018-08-31T19:11:39.279Z,2.30
2018-08-31T19:14:08.581Z,2.00
2018-08-31T19:16:37.809Z,1.70
2018-08-31T19:19:06.935Z,1.67
2018-08-31T19:21:37.615Z,1.77
2018-08-31T19:24:06.759Z,1.60
2018-08-31T19:26:36.032Z,1.67
2018-08-31T19:29:05.564Z,2.03
2018-08-31T19:31:34.932Z,1.90
2018-08-31T19:34:04.186Z,1.43
2018-08-31T19:36:33.711Z,1.80
2018-08-31T19:39:03.235Z,1.87
2018-08-31T19:41:32.373Z,1.70
2018-08-31T19:44:01.409Z,1.80
2018-08-31T19:46:30.993Z,1.60
2018-08-31T19:49:00.829Z,2.00
2018-08-31T19:51:29.815Z,1.80
2018-08-31T19:53:59.382Z,1.70
2018-08-31T19:56:28.453Z,2.20
2018-08-31T19:58:57.495Z,2.43
2018-08-31T20:01:26.480Z,1.70
2018-08-31T20:03:55.521Z,1.97
2018-08-31T20:06:24.628Z,2.00
2018-08-31T20:08:53.609Z,2.03
2018-08-31T20:11:23.255Z,1.87
2018-08-31T20:13:52.340Z,1.87
2018-08-31T20:16:21.368Z,1.70
2018-08-31T20:18:50.387Z,1.60
2018-08-31T20:21:19.454Z,1.60
2018-08-31T20:23:48.584Z,1.57
2018-08-31T20:26:17.611Z,2.03
2018-08-31T20:28:46.502Z,1.80
2018-08-31T20:31:15.605Z,1.90
2018-08-31T20:33:44.835Z,2.93
2018-08-31T20:36:14.046Z,3.47
2018-08-31T20:38:43.870Z,3.10
2018-08-31T20:41:12.914Z,2.80
2018-08-31T20:43:41.950Z,3.23
2018-08-31T20:46:11.068Z,3.03
2018-08-31T20:48:40.038Z,2.20
2018-08-31T20:51:09.236Z,2.07
2018-08-31T20:53:38.765Z,2.50
2018-08-31T20:56:08.053Z,1.80
2018-08-31T20:58:37.053Z,1.97
2018-08-31T21:01:06.282Z,1.80
2018-08-31T21:03:35.488Z,2.00
2018-08-31T21:06:04.922Z,2.20
2018-08-31T21:08:34.141Z,1.70
2018-08-31T21:11:03.166Z,1.90
2018-08-31T21:13:32.392Z,2.00
2018-08-31T21:16:01.488Z,2.20
2018-08-31T21:18:30.516Z,2.70
2018-08-31T21:20:59.606Z,3.07
2018-08-31T21:23:28.931Z,2.00
2018-08-31T21:25:57.861Z,2.00
2018-08-31T21:28:26.830Z,2.10
2018-08-31T21:30:55.974Z,1.90
2018-08-31T21:33:24.889Z,2.00
2018-08-31T21:35:54.121Z,2.10
2018-08-31T21:38:23.250Z,2.57
2018-08-31T21:40:52.409Z,2.50
2018-08-31T21:43:21.482Z,1.70
2018-08-31T21:45:50.703Z,1.60
2018-08-31T21:48:19.892Z,1.80
2018-08-31T21:50:48.977Z,2.43
2018-08-31T21:53:18.632Z,2.30
2018-08-31T21:55:47.772Z,1.70
2018-08-31T21:58:16.972Z,2.50
2018-08-31T22:00:46.525Z,2.40
2018-08-31T22:03:15.538Z,2.80
2018-08-31T22:05:47.943Z,2.80
2018-08-31T22:08:18.480Z,1.90
2018-08-31T22:10:47.479Z,2.07
2018-08-31T22:13:16.683Z,1.63
2018-08-31T22:15:45.796Z,1.90
2018-08-31T22:18:14.858Z,2.73
2018-08-31T22:20:44.265Z,2.63
2018-08-31T22:23:13.258Z,3.20
2018-08-31T22:25:42.253Z,4.53
2018-08-31T22:28:11.455Z,2.90
2018-08-31T22:30:40.390Z,2.30
2018-08-31T22:33:09.405Z,3.20
2018-08-31T22:35:38.692Z,3.57
2018-08-31T22:38:07.886Z,2.37
2018-08-31T22:40:36.937Z,1.90
2018-08-31T22:43:06.795Z,1.80
2018-08-31T22:45:36.046Z,1.73
2018-08-31T22:48:05.135Z,1.60
2018-08-31T22:50:34.273Z,2.13
2018-08-31T22:53:03.238Z,2.10
2018-08-31T22:55:32.466Z,1.90
2018-08-31T22:58:01.548Z,1.73
2018-08-31T23:00:31.584Z,2.13
2018-08-31T23:03:00.741Z,1.93
2018-08-31T23:05:29.875Z,1.60
2018-08-31T23:08:01.886Z,2.07
2018-08-31T23:10:31.386Z,1.90
2018-08-31T23:13:00.363Z,2.10
2018-08-31T23:15:29.543Z,1.73
2018-08-31T23:17:58.820Z,1.93
2018-08-31T23:20:27.805Z,1.63
2018-08-31T23:23:01.987Z,1.77
2018-08-31T23:25:36.294Z,2.10
2018-08-31T23:28:06.062Z,1.90
2018-08-31T23:30:35.056Z,1.83
2018-08-31T23:33:04.707Z,2.30
2018-08-31T23:35:34.138Z,2.10
2018-08-31T23:38:03.089Z,1.73
2018-08-31T23:40:32.095Z,1.33
2018-08-31T23:43:01.443Z,1.50
2018-08-31T23:45:30.693Z,1.60
2018-08-31T23:47:59.997Z,1.47
2018-08-31T23:50:29.266Z,1.57
2018-08-31T23:52:58.181Z,1.77
2018-08-31T23:55:27.224Z,1.73
2018-08-31T23:57:56.413Z,1.50
